Christina G — ZCXO5 — position and weather

sailwx.info

Track history (hours):
 
Tides and Currents Weather Stations Pressure Air Temp Water Temp Dewpoint Dewpoint Depression Visibility Wind Speed Wind Dir Waves Ship Positions

Christina G

Last reported at 2015-Jul-01 02:05 UTC. Time now 2015-Jul-01 06:34 UTC.
Position N 43°43' E 007°21'.

Length 33 m; draft 2.5 m.

MMSI: 319032100.

Date/timePositionNaut miles runAvg speedWind from/ knotsBaromVisibWave heightAir tempDewpointWater temp
2015-Jul-01 02:05N 43°43' E 007°21'0 0.0
2015-Jul-01 00:11N 43°43' E 007°21'0 0.0
2015-Jun-30 23:23N 43°43' E 007°21'0 0.0
2015-Jun-30 20:05N 43°43' E 007°21'0 0.0
2015-Jun-30 19:17N 43°43' E 007°21'0 0.0
2015-Jun-30 18:29N 43°43' E 007°21'0 0.0
2015-Jun-30 14:23N 43°43' E 007°21'0 0.0
2015-Jun-30 11:23N 43°43' E 007°21'3 3.0
2015-Jun-30 10:33N 43°43' E 007°25'1 0.1
2015-Jun-29 17:08N 43°44' E 007°25'0 0.0
2015-Jun-29 09:34N 43°44' E 007°26'7 6.8
2015-Jun-29 08:33N 43°42' E 007°17'0 0.0
2015-Jun-28 21:28N 43°42' E 007°17'0 0.0
2015-Jun-28 20:22N 43°42' E 007°17'0 0.0
2015-Jun-28 19:28N 43°42' E 007°17'0 0.0
2015-Jun-28 18:16N 43°42' E 007°17'0 0.0
2015-Jun-28 15:28N 43°42' E 007°17'0 0.0
2015-Jun-28 14:22N 43°42' E 007°17'0 0.0
2015-Jun-28 10:22N 43°42' E 007°17'0 0.0
2015-Jun-28 09:28N 43°42' E 007°17'0 0.0
2015-Jun-28 08:22N 43°42' E 007°17'0 0.0
2015-Jun-28 07:28N 43°42' E 007°17'0 0.0
2015-Jun-28 06:16N 43°42' E 007°17'0 0.0
2015-Jun-28 05:28N 43°42' E 007°17'0 0.0
2015-Jun-28 04:28N 43°42' E 007°17'0 0.0
2015-Jun-27 21:28N 43°42' E 007°17'0 0.0
2015-Jun-27 20:28N 43°42' E 007°17'0 0.0
2015-Jun-27 19:16N 43°42' E 007°17'0 0.0
2015-Jun-27 18:28N 43°42' E 007°17'0 0.0
2015-Jun-27 17:28N 43°42' E 007°17'0 0.0
2015-Jun-27 16:19N 43°42' E 007°17'5 6.5
2015-Jun-27 15:33N 43°37' E 007°14'1411.5
2015-Jun-27 14:22N 43°26' E 007°03'910.7
2015-Jun-27 13:33N 43°20' E 006°55'54 9.9
2015-Jun-27 08:07N 42°38' E 006°08'610.2
2015-Jun-27 07:33N 42°34' E 006°03'1010.2
2015-Jun-27 06:33N 42°27' E 005°53'1010.2
2015-Jun-27 05:33N 42°19' E 005°44'20 9.8
2015-Jun-27 03:32N 42°05' E 005°25'1010.0
2015-Jun-27 02:33N 41°58' E 005°16'1010.1
2015-Jun-27 01:33N 41°50' E 005°07'7310.2
2015-Jun-26 18:26N 40°59' E 003°59'53 9.9
2015-Jun-26 13:04N 40°19' E 003°12'610.1
2015-Jun-26 12:28N 40°15' E 003°07'1010.5
2015-Jun-26 11:33N 40°08' E 002°58'1010.5
2015-Jun-26 10:33N 40°00' E 002°48'1010.0
2015-Jun-26 09:33N 39°53' E 002°40'1010.0
2015-Jun-26 08:33N 39°45' E 002°31'1010.1
2015-Jun-26 07:33N 39°38' E 002°22'8 8.5
2015-Jun-26 06:33N 39°30' E 002°25'8 7.9
2015-Jun-26 05:33N 39°30' E 002°35'4 4.1
2015-Jun-26 04:33N 39°34' E 002°38'0 0.0
2015-Jun-26 03:33N 39°34' E 002°38'0 0.0
2015-Jun-26 02:33N 39°34' E 002°38'0 0.0
2015-Jun-26 01:33N 39°34' E 002°38'0 0.0
2015-Jun-26 00:33N 39°34' E 002°38'0 0.0
2015-Jun-25 23:33N 39°34' E 002°38'0 0.0
2015-Jun-25 22:18N 39°34' E 002°38'0 0.0
2015-Jun-25 21:33N 39°34' E 002°38'0 0.0
2015-Jun-25 20:33N 39°34' E 002°38'0 0.0
2015-Jun-25 19:33N 39°34' E 002°38'0 0.0
2015-Jun-25 18:33N 39°34' E 002°38'0 0.0
2015-Jun-25 17:30N 39°34' E 002°38'0 0.0
2015-Jun-25 16:33N 39°34' E 002°38'0 0.0
2015-Jun-25 15:33N 39°34' E 002°38'0 0.0
2015-Jun-25 14:33N 39°34' E 002°38'0 0.0
2015-Jun-25 13:33N 39°34' E 002°38'0 0.0
2015-Jun-25 12:33N 39°34' E 002°38'0 0.0
2015-Jun-25 11:33N 39°34' E 002°38'0 0.5
2015-Jun-25 10:33N 39°34' E 002°38'0 0.5
2015-Jun-25 09:33N 39°34' E 002°38'0 0.0
2015-Jun-25 07:17N 39°34' E 002°38'0 0.0
2015-Jun-25 06:33N 39°34' E 002°38'0 0.0
2015-Jun-25 05:33N 39°34' E 002°38'0 0.0
2015-Jun-25 04:33N 39°34' E 002°38'0 0.0
2015-Jun-25 03:33N 39°34' E 002°38'0 0.0
2015-Jun-25 02:33N 39°34' E 002°38'0 0.0
2015-Jun-25 01:33N 39°34' E 002°38'0 0.0
2015-Jun-25 00:33N 39°34' E 002°38'0 0.0
2015-Jun-24 23:33N 39°34' E 002°38'0 0.0
2015-Jun-24 22:33N 39°34' E 002°38'0 0.0
2015-Jun-24 21:33N 39°34' E 002°38'0 0.0
2015-Jun-24 20:33N 39°34' E 002°38'0 0.0
2015-Jun-24 19:33N 39°34' E 002°38'0 0.0
2015-Jun-24 18:33N 39°34' E 002°38'0 0.0
2015-Jun-24 17:33N 39°34' E 002°38'0 0.0
2015-Jun-24 16:33N 39°34' E 002°38'0 0.0
2015-Jun-24 15:33N 39°34' E 002°38'1 0.7
2015-Jun-24 14:33N 39°33' E 002°38'3 3.1
2015-Jun-24 13:34N 39°32' E 002°35'0 0.0
2015-Jun-24 12:33N 39°32' E 002°35'0 0.0
2015-Jun-24 11:33N 39°32' E 002°35'0 0.0
2015-Jun-24 10:33N 39°32' E 002°35'0 0.4
2015-Jun-24 09:33N 39°32' E 002°35'4 4.0
2015-Jun-24 08:33N 39°28' E 002°31'0 0.0
2015-Jun-24 07:30N 39°28' E 002°31'0 0.0
2015-Jun-24 06:30N 39°28' E 002°31'0 0.0
2015-Jun-24 05:18N 39°28' E 002°31'0 0.0
2015-Jun-24 04:33N 39°28' E 002°31'0 0.0
2015-Jun-24 03:33N 39°28' E 002°31'0 0.0
2015-Jun-24 02:33N 39°28' E 002°31'0 0.0
2015-Jun-24 00:24N 39°28' E 002°31'0 0.0
2015-Jun-23 23:33N 39°28' E 002°31'0 0.0
2015-Jun-23 22:18N 39°28' E 002°31'0 0.0
2015-Jun-23 21:33N 39°28' E 002°31'0 0.0
2015-Jun-23 20:33N 39°28' E 002°31'0 0.5
2015-Jun-23 19:33N 39°28' E 002°32'3 7.2
2015-Jun-23 19:06N 39°28' E 002°27'65 2.7
2015-Jun-22 19:31N 38°45' E 001°26'0 0.0
2015-Jun-22 18:25N 38°45' E 001°26'5 2.3
2015-Jun-22 16:26N 38°49' E 001°25'3 0.9
2015-Jun-22 13:03N 38°52' E 001°26'4 6.7
2015-Jun-22 12:28N 38°49' E 001°24'  
Track history (hours):
 
Tides and Currents Weather Stations Pressure Air Temp Water Temp Dewpoint Dewpoint Depression Visibility Wind Speed Wind Dir Waves Ship Positions

Christina G

Last reported at 2015-Jul-01 02:05 UTC. Time now 2015-Jul-01 06:34 UTC.
Position N 43°43' E 007°21'.

Length 33 m; draft 2.5 m.

MMSI: 319032100.

Date/timePositionNaut miles runAvg speedWind from/ knotsBaromVisibWave heightAir tempDewpointWater temp
2015-Jul-01 02:05N 43°43' E 007°21'0 0.0
2015-Jul-01 00:11N 43°43' E 007°21'0 0.0
2015-Jun-30 23:23N 43°43' E 007°21'0 0.0
2015-Jun-30 20:05N 43°43' E 007°21'0 0.0
2015-Jun-30 19:17N 43°43' E 007°21'0 0.0
2015-Jun-30 18:29N 43°43' E 007°21'0 0.0
2015-Jun-30 14:23N 43°43' E 007°21'0 0.0
2015-Jun-30 11:23N 43°43' E 007°21'3 3.0
2015-Jun-30 10:33N 43°43' E 007°25'1 0.1
2015-Jun-29 17:08N 43°44' E 007°25'0 0.0
2015-Jun-29 09:34N 43°44' E 007°26'7 6.8
2015-Jun-29 08:33N 43°42' E 007°17'0 0.0
2015-Jun-28 21:28N 43°42' E 007°17'0 0.0
2015-Jun-28 20:22N 43°42' E 007°17'0 0.0
2015-Jun-28 19:28N 43°42' E 007°17'0 0.0
2015-Jun-28 18:16N 43°42' E 007°17'0 0.0
2015-Jun-28 15:28N 43°42' E 007°17'0 0.0
2015-Jun-28 14:22N 43°42' E 007°17'0 0.0
2015-Jun-28 10:22N 43°42' E 007°17'0 0.0
2015-Jun-28 09:28N 43°42' E 007°17'0 0.0
2015-Jun-28 08:22N 43°42' E 007°17'0 0.0
2015-Jun-28 07:28N 43°42' E 007°17'0 0.0
2015-Jun-28 06:16N 43°42' E 007°17'0 0.0
2015-Jun-28 05:28N 43°42' E 007°17'0 0.0
2015-Jun-28 04:28N 43°42' E 007°17'0 0.0
2015-Jun-27 21:28N 43°42' E 007°17'0 0.0
2015-Jun-27 20:28N 43°42' E 007°17'0 0.0
2015-Jun-27 19:16N 43°42' E 007°17'0 0.0
2015-Jun-27 18:28N 43°42' E 007°17'0 0.0
2015-Jun-27 17:28N 43°42' E 007°17'0 0.0
2015-Jun-27 16:19N 43°42' E 007°17'5 6.5
2015-Jun-27 15:33N 43°37' E 007°14'1411.5
2015-Jun-27 14:22N 43°26' E 007°03'910.7
2015-Jun-27 13:33N 43°20' E 006°55'54 9.9
2015-Jun-27 08:07N 42°38' E 006°08'610.2
2015-Jun-27 07:33N 42°34' E 006°03'1010.2
2015-Jun-27 06:33N 42°27' E 005°53'1010.2
2015-Jun-27 05:33N 42°19' E 005°44'20 9.8
2015-Jun-27 03:32N 42°05' E 005°25'1010.0
2015-Jun-27 02:33N 41°58' E 005°16'1010.1
2015-Jun-27 01:33N 41°50' E 005°07'7310.2
2015-Jun-26 18:26N 40°59' E 003°59'53 9.9
2015-Jun-26 13:04N 40°19' E 003°12'610.1
2015-Jun-26 12:28N 40°15' E 003°07'1010.5
2015-Jun-26 11:33N 40°08' E 002°58'1010.5
2015-Jun-26 10:33N 40°00' E 002°48'1010.0
2015-Jun-26 09:33N 39°53' E 002°40'1010.0
2015-Jun-26 08:33N 39°45' E 002°31'1010.1
2015-Jun-26 07:33N 39°38' E 002°22'8 8.5
2015-Jun-26 06:33N 39°30' E 002°25'8 7.9
2015-Jun-26 05:33N 39°30' E 002°35'4 4.1
2015-Jun-26 04:33N 39°34' E 002°38'0 0.0
2015-Jun-26 03:33N 39°34' E 002°38'0 0.0
2015-Jun-26 02:33N 39°34' E 002°38'0 0.0
2015-Jun-26 01:33N 39°34' E 002°38'0 0.0
2015-Jun-26 00:33N 39°34' E 002°38'0 0.0
2015-Jun-25 23:33N 39°34' E 002°38'0 0.0
2015-Jun-25 22:18N 39°34' E 002°38'0 0.0
2015-Jun-25 21:33N 39°34' E 002°38'0 0.0
2015-Jun-25 20:33N 39°34' E 002°38'0 0.0
2015-Jun-25 19:33N 39°34' E 002°38'0 0.0
2015-Jun-25 18:33N 39°34' E 002°38'0 0.0
2015-Jun-25 17:30N 39°34' E 002°38'0 0.0
2015-Jun-25 16:33N 39°34' E 002°38'0 0.0
2015-Jun-25 15:33N 39°34' E 002°38'0 0.0
2015-Jun-25 14:33N 39°34' E 002°38'0 0.0
2015-Jun-25 13:33N 39°34' E 002°38'0 0.0
2015-Jun-25 12:33N 39°34' E 002°38'0 0.0
2015-Jun-25 11:33N 39°34' E 002°38'0 0.5
2015-Jun-25 10:33N 39°34' E 002°38'0 0.5
2015-Jun-25 09:33N 39°34' E 002°38'0 0.0
2015-Jun-25 07:17N 39°34' E 002°38'0 0.0
2015-Jun-25 06:33N 39°34' E 002°38'0 0.0
2015-Jun-25 05:33N 39°34' E 002°38'0 0.0
2015-Jun-25 04:33N 39°34' E 002°38'0 0.0
2015-Jun-25 03:33N 39°34' E 002°38'0 0.0
2015-Jun-25 02:33N 39°34' E 002°38'0 0.0
2015-Jun-25 01:33N 39°34' E 002°38'0 0.0
2015-Jun-25 00:33N 39°34' E 002°38'0 0.0
2015-Jun-24 23:33N 39°34' E 002°38'0 0.0
2015-Jun-24 22:33N 39°34' E 002°38'0 0.0
2015-Jun-24 21:33N 39°34' E 002°38'0 0.0
2015-Jun-24 20:33N 39°34' E 002°38'0 0.0
2015-Jun-24 19:33N 39°34' E 002°38'0 0.0
2015-Jun-24 18:33N 39°34' E 002°38'0 0.0
2015-Jun-24 17:33N 39°34' E 002°38'0 0.0
2015-Jun-24 16:33N 39°34' E 002°38'0 0.0
2015-Jun-24 15:33N 39°34' E 002°38'1 0.7
2015-Jun-24 14:33N 39°33' E 002°38'3 3.1
2015-Jun-24 13:34N 39°32' E 002°35'0 0.0
2015-Jun-24 12:33N 39°32' E 002°35'0 0.0
2015-Jun-24 11:33N 39°32' E 002°35'0 0.0
2015-Jun-24 10:33N 39°32' E 002°35'0 0.4
2015-Jun-24 09:33N 39°32' E 002°35'4 4.0
2015-Jun-24 08:33N 39°28' E 002°31'0 0.0
2015-Jun-24 07:30N 39°28' E 002°31'0 0.0
2015-Jun-24 06:30N 39°28' E 002°31'0 0.0
2015-Jun-24 05:18N 39°28' E 002°31'0 0.0
2015-Jun-24 04:33N 39°28' E 002°31'0 0.0
2015-Jun-24 03:33N 39°28' E 002°31'0 0.0
2015-Jun-24 02:33N 39°28' E 002°31'0 0.0
2015-Jun-24 00:24N 39°28' E 002°31'0 0.0
2015-Jun-23 23:33N 39°28' E 002°31'0 0.0
2015-Jun-23 22:18N 39°28' E 002°31'0 0.0
2015-Jun-23 21:33N 39°28' E 002°31'0 0.0
2015-Jun-23 20:33N 39°28' E 002°31'0 0.5
2015-Jun-23 19:33N 39°28' E 002°32'3 7.2
2015-Jun-23 19:06N 39°28' E 002°27'65 2.7
2015-Jun-22 19:31N 38°45' E 001°26'0 0.0
2015-Jun-22 18:25N 38°45' E 001°26'5 2.3
2015-Jun-22 16:26N 38°49' E 001°25'3 0.9
2015-Jun-22 13:03N 38°52' E 001°26'4 6.7
2015-Jun-22 12:28N 38°49' E 001°24'  

Dump ship's entire track history